sensor_id;sensor_type;location;lat;lon;timestamp;P1;durP1;ratioP1;P2;durP2;ratioP2
55292;SDS011;41157;53.560;10.098;2023-03-04T00:01:03;14.60;;;2.70;;
55292;SDS011;41157;53.560;10.098;2023-03-04T00:03:30;22.63;;;3.80;;
55292;SDS011;41157;53.560;10.098;2023-03-04T00:05:59;8.37;;;2.60;;
55292;SDS011;41157;53.560;10.098;2023-03-04T00:08:26;16.57;;;3.63;;
55292;SDS011;41157;53.560;10.098;2023-03-04T00:10:53;13.37;;;3.30;;
55292;SDS011;41157;53.560;10.098;2023-03-04T00:13:20;19.37;;;3.67;;
55292;SDS011;41157;53.560;10.098;2023-03-04T00:15:48;18.17;;;3.47;;
55292;SDS011;41157;53.560;10.098;2023-03-04T00:18:15;16.87;;;2.97;;
55292;SDS011;41157;53.560;10.098;2023-03-04T00:20:42;14.90;;;3.40;;
55292;SDS011;41157;53.560;10.098;2023-03-04T00:23:11;13.80;;;3.10;;
55292;SDS011;41157;53.560;10.098;2023-03-04T00:25:38;10.03;;;2.90;;
55292;SDS011;41157;53.560;10.098;2023-03-04T00:28:05;12.90;;;3.17;;
55292;SDS011;41157;53.560;10.098;2023-03-04T00:30:32;15.77;;;3.20;;
55292;SDS011;41157;53.560;10.098;2023-03-04T00:32:59;13.60;;;2.87;;
55292;SDS011;41157;53.560;10.098;2023-03-04T00:35:26;16.73;;;3.30;;
55292;SDS011;41157;53.560;10.098;2023-03-04T00:37:53;14.63;;;2.97;;
55292;SDS011;41157;53.560;10.098;2023-03-04T00:40:22;12.20;;;3.00;;
55292;SDS011;41157;53.560;10.098;2023-03-04T00:42:49;9.90;;;2.63;;
55292;SDS011;41157;53.560;10.098;2023-03-04T00:45:16;9.73;;;2.50;;
55292;SDS011;41157;53.560;10.098;2023-03-04T00:47:43;12.53;;;2.63;;
55292;SDS011;41157;53.560;10.098;2023-03-04T00:50:10;10.23;;;2.93;;
55292;SDS011;41157;53.560;10.098;2023-03-04T00:52:37;17.53;;;2.70;;
55292;SDS011;41157;53.560;10.098;2023-03-04T00:55:05;10.17;;;2.47;;
55292;SDS011;41157;53.560;10.098;2023-03-04T00:57:33;10.67;;;2.50;;
55292;SDS011;41157;53.560;10.098;2023-03-04T01:00:01;13.67;;;2.97;;
55292;SDS011;41157;53.560;10.098;2023-03-04T01:02:28;13.40;;;2.63;;
55292;SDS011;41157;53.560;10.098;2023-03-04T01:04:55;10.47;;;2.33;;
55292;SDS011;41157;53.560;10.098;2023-03-04T01:07:22;8.23;;;2.37;;
55292;SDS011;41157;53.560;10.098;2023-03-04T01:09:49;11.03;;;2.80;;
55292;SDS011;41157;53.560;10.098;2023-03-04T01:12:16;11.63;;;2.93;;
55292;SDS011;41157;53.560;10.098;2023-03-04T01:14:45;12.03;;;2.30;;
55292;SDS011;41157;53.560;10.098;2023-03-04T01:17:12;8.00;;;2.77;;
55292;SDS011;41157;53.560;10.098;2023-03-04T01:19:39;6.63;;;1.73;;
55292;SDS011;41157;53.560;10.098;2023-03-04T01:22:07;11.73;;;2.63;;
55292;SDS011;41157;53.560;10.098;2023-03-04T01:24:35;13.40;;;2.80;;
55292;SDS011;41157;53.560;10.098;2023-03-04T01:27:02;9.97;;;2.33;;
55292;SDS011;41157;53.560;10.098;2023-03-04T01:29:29;9.40;;;2.63;;
55292;SDS011;41157;53.560;10.098;2023-03-04T01:31:57;11.10;;;2.43;;
55292;SDS011;41157;53.560;10.098;2023-03-04T01:34:24;9.27;;;2.40;;
55292;SDS011;41157;53.560;10.098;2023-03-04T01:36:51;8.20;;;2.10;;
55292;SDS011;41157;53.560;10.098;2023-03-04T01:39:19;9.77;;;2.30;;
55292;SDS011;41157;53.560;10.098;2023-03-04T01:41:46;12.67;;;2.37;;
55292;SDS011;41157;53.560;10.098;2023-03-04T01:44:13;11.50;;;2.03;;
55292;SDS011;41157;53.560;10.098;2023-03-04T01:46:40;6.10;;;1.90;;
55292;SDS011;41157;53.560;10.098;2023-03-04T01:49:11;8.47;;;1.90;;
55292;SDS011;41157;53.560;10.098;2023-03-04T01:51:40;15.10;;;2.57;;
55292;SDS011;41157;53.560;10.098;2023-03-04T01:54:08;14.50;;;2.63;;
55292;SDS011;41157;53.560;10.098;2023-03-04T01:56:36;13.53;;;1.97;;
55292;SDS011;41157;53.560;10.098;2023-03-04T01:59:10;12.07;;;2.07;;
55292;SDS011;41157;53.560;10.098;2023-03-04T02:04:08;10.73;;;2.00;;
55292;SDS011;41157;53.560;10.098;2023-03-04T02:06:37;8.37;;;2.20;;
55292;SDS011;41157;53.560;10.098;2023-03-04T02:09:05;13.53;;;1.97;;
55292;SDS011;41157;53.560;10.098;2023-03-04T02:11:32;9.77;;;2.60;;
55292;SDS011;41157;53.560;10.098;2023-03-04T02:14:00;9.03;;;2.13;;
55292;SDS011;41157;53.560;10.098;2023-03-04T02:16:27;10.87;;;2.07;;
55292;SDS011;41157;53.560;10.098;2023-03-04T02:18:54;9.57;;;2.13;;
55292;SDS011;41157;53.560;10.098;2023-03-04T02:21:22;8.37;;;1.97;;
55292;SDS011;41157;53.560;10.098;2023-03-04T02:23:53;10.80;;;2.10;;
55292;SDS011;41157;53.560;10.098;2023-03-04T02:26:24;12.40;;;2.30;;
55292;SDS011;41157;53.560;10.098;2023-03-04T02:28:52;9.80;;;2.00;;
55292;SDS011;41157;53.560;10.098;2023-03-04T02:31:21;10.70;;;2.17;;
55292;SDS011;41157;53.560;10.098;2023-03-04T02:33:49;9.63;;;1.90;;
55292;SDS011;41157;53.560;10.098;2023-03-04T02:36:16;9.73;;;2.37;;
55292;SDS011;41157;53.560;10.098;2023-03-04T02:38:43;8.50;;;2.20;;
55292;SDS011;41157;53.560;10.098;2023-03-04T02:41:10;11.23;;;2.53;;
55292;SDS011;41157;53.560;10.098;2023-03-04T02:43:39;10.30;;;2.20;;
55292;SDS011;41157;53.560;10.098;2023-03-04T02:46:07;10.07;;;2.30;;
55292;SDS011;41157;53.560;10.098;2023-03-04T02:48:36;7.40;;;2.20;;
55292;SDS011;41157;53.560;10.098;2023-03-04T02:51:03;12.53;;;2.33;;
55292;SDS011;41157;53.560;10.098;2023-03-04T02:53:30;14.70;;;2.20;;
55292;SDS011;41157;53.560;10.098;2023-03-04T02:55:57;11.97;;;2.27;;
55292;SDS011;41157;53.560;10.098;2023-03-04T02:58:24;12.03;;;2.03;;
55292;SDS011;41157;53.560;10.098;2023-03-04T03:00:53;15.37;;;2.37;;
55292;SDS011;41157;53.560;10.098;2023-03-04T03:03:20;15.93;;;2.57;;
55292;SDS011;41157;53.560;10.098;2023-03-04T03:05:47;10.70;;;2.30;;
55292;SDS011;41157;53.560;10.098;2023-03-04T03:08:14;10.87;;;2.33;;
55292;SDS011;41157;53.560;10.098;2023-03-04T03:10:41;15.20;;;2.27;;
55292;SDS011;41157;53.560;10.098;2023-03-04T03:13:08;11.33;;;2.60;;
55292;SDS011;41157;53.560;10.098;2023-03-04T03:15:35;11.07;;;2.20;;
55292;SDS011;41157;53.560;10.098;2023-03-04T03:18:07;10.50;;;2.30;;
55292;SDS011;41157;53.560;10.098;2023-03-04T03:20:34;9.00;;;2.10;;
55292;SDS011;41157;53.560;10.098;2023-03-04T03:23:02;10.37;;;2.37;;
55292;SDS011;41157;53.560;10.098;2023-03-04T03:25:29;16.17;;;2.83;;
55292;SDS011;41157;53.560;10.098;2023-03-04T03:27:56;12.30;;;2.53;;
55292;SDS011;41157;53.560;10.098;2023-03-04T03:30:23;13.40;;;3.00;;
55292;SDS011;41157;53.560;10.098;2023-03-04T03:32:50;12.07;;;2.27;;
55292;SDS011;41157;53.560;10.098;2023-03-04T03:35:18;11.63;;;2.50;;
55292;SDS011;41157;53.560;10.098;2023-03-04T03:37:45;10.37;;;2.70;;
55292;SDS011;41157;53.560;10.098;2023-03-04T03:40:14;11.87;;;2.70;;
55292;SDS011;41157;53.560;10.098;2023-03-04T03:42:41;12.67;;;2.77;;
55292;SDS011;41157;53.560;10.098;2023-03-04T03:45:08;13.23;;;2.40;;
55292;SDS011;41157;53.560;10.098;2023-03-04T03:47:35;11.93;;;2.60;;
55292;SDS011;41157;53.560;10.098;2023-03-04T03:50:02;8.83;;;2.40;;
55292;SDS011;41157;53.560;10.098;2023-03-04T03:52:31;7.87;;;1.73;;
55292;SDS011;41157;53.560;10.098;2023-03-04T03:54:58;13.77;;;2.67;;
55292;SDS011;41157;53.560;10.098;2023-03-04T03:57:26;11.23;;;2.23;;
55292;SDS011;41157;53.560;10.098;2023-03-04T03:59:53;10.83;;;2.73;;
55292;SDS011;41157;53.560;10.098;2023-03-04T04:02:20;6.17;;;2.00;;
55292;SDS011;41157;53.560;10.098;2023-03-04T04:04:47;13.07;;;2.47;;
55292;SDS011;41157;53.560;10.098;2023-03-04T04:07:15;9.87;;;2.47;;
55292;SDS011;41157;53.560;10.098;2023-03-04T04:09:44;17.23;;;2.20;;
55292;SDS011;41157;53.560;10.098;2023-03-04T04:12:12;7.63;;;2.33;;
55292;SDS011;41157;53.560;10.098;2023-03-04T04:14:39;15.27;;;2.60;;
55292;SDS011;41157;53.560;10.098;2023-03-04T04:17:06;12.17;;;2.87;;
55292;SDS011;41157;53.560;10.098;2023-03-04T04:19:33;8.53;;;2.40;;
55292;SDS011;41157;53.560;10.098;2023-03-04T04:22:00;21.67;;;2.70;;
55292;SDS011;41157;53.560;10.098;2023-03-04T04:24:28;11.43;;;2.43;;
55292;SDS011;41157;53.560;10.098;2023-03-04T04:26:56;15.53;;;2.60;;
55292;SDS011;41157;53.560;10.098;2023-03-04T04:29:23;8.40;;;2.27;;
55292;SDS011;41157;53.560;10.098;2023-03-04T04:31:50;11.53;;;3.00;;
55292;SDS011;41157;53.560;10.098;2023-03-04T04:34:17;9.20;;;2.30;;
55292;SDS011;41157;53.560;10.098;2023-03-04T04:36:44;11.77;;;2.70;;
55292;SDS011;41157;53.560;10.098;2023-03-04T04:39:11;9.40;;;2.40;;
55292;SDS011;41157;53.560;10.098;2023-03-04T04:41:39;13.27;;;2.73;;
55292;SDS011;41157;53.560;10.098;2023-03-04T04:44:07;11.37;;;2.57;;
55292;SDS011;41157;53.560;10.098;2023-03-04T04:46:34;13.27;;;2.63;;
55292;SDS011;41157;53.560;10.098;2023-03-04T04:49:02;9.93;;;2.67;;
55292;SDS011;41157;53.560;10.098;2023-03-04T04:51:29;14.87;;;2.63;;
55292;SDS011;41157;53.560;10.098;2023-03-04T04:53:57;14.37;;;2.87;;
55292;SDS011;41157;53.560;10.098;2023-03-04T04:56:24;10.23;;;2.17;;
55292;SDS011;41157;53.560;10.098;2023-03-04T04:58:52;10.73;;;1.90;;
55292;SDS011;41157;53.560;10.098;2023-03-04T05:01:21;10.80;;;2.47;;
55292;SDS011;41157;53.560;10.098;2023-03-04T05:03:48;11.67;;;2.57;;
55292;SDS011;41157;53.560;10.098;2023-03-04T05:06:17;11.33;;;2.23;;
55292;SDS011;41157;53.560;10.098;2023-03-04T05:08:44;14.03;;;2.50;;
55292;SDS011;41157;53.560;10.098;2023-03-04T05:11:11;17.43;;;3.50;;
55292;SDS011;41157;53.560;10.098;2023-03-04T05:13:38;10.57;;;2.57;;
55292;SDS011;41157;53.560;10.098;2023-03-04T05:16:06;11.90;;;2.57;;
55292;SDS011;41157;53.560;10.098;2023-03-04T05:18:34;12.50;;;2.73;;
55292;SDS011;41157;53.560;10.098;2023-03-04T05:21:01;14.60;;;2.60;;
55292;SDS011;41157;53.560;10.098;2023-03-04T05:23:29;14.37;;;2.80;;
55292;SDS011;41157;53.560;10.098;2023-03-04T05:25:56;10.53;;;2.90;;
55292;SDS011;41157;53.560;10.098;2023-03-04T05:28:23;15.50;;;3.43;;
55292;SDS011;41157;53.560;10.098;2023-03-04T05:30:50;9.30;;;2.17;;
55292;SDS011;41157;53.560;10.098;2023-03-04T05:33:18;13.27;;;2.73;;
55292;SDS011;41157;53.560;10.098;2023-03-04T05:35:47;11.00;;;2.20;;
55292;SDS011;41157;53.560;10.098;2023-03-04T05:38:15;8.73;;;2.80;;
55292;SDS011;41157;53.560;10.098;2023-03-04T05:40:43;9.97;;;2.80;;
55292;SDS011;41157;53.560;10.098;2023-03-04T05:43:10;12.30;;;2.60;;
55292;SDS011;41157;53.560;10.098;2023-03-04T05:45:37;15.57;;;5.03;;
55292;SDS011;41157;53.560;10.098;2023-03-04T05:48:05;17.13;;;6.07;;
55292;SDS011;41157;53.560;10.098;2023-03-04T05:50:32;16.40;;;7.00;;
55292;SDS011;41157;53.560;10.098;2023-03-04T05:53:01;17.83;;;3.73;;
55292;SDS011;41157;53.560;10.098;2023-03-04T05:55:28;13.00;;;3.27;;
55292;SDS011;41157;53.560;10.098;2023-03-04T05:57:55;10.70;;;2.57;;
55292;SDS011;41157;53.560;10.098;2023-03-04T06:00:22;19.33;;;3.50;;
55292;SDS011;41157;53.560;10.098;2023-03-04T06:02:49;15.70;;;3.17;;
55292;SDS011;41157;53.560;10.098;2023-03-04T06:05:17;13.40;;;2.93;;
55292;SDS011;41157;53.560;10.098;2023-03-04T06:07:44;19.30;;;3.17;;
55292;SDS011;41157;53.560;10.098;2023-03-04T06:10:13;18.70;;;3.70;;
55292;SDS011;41157;53.560;10.098;2023-03-04T06:12:40;18.83;;;3.40;;
55292;SDS011;41157;53.560;10.098;2023-03-04T06:15:07;24.30;;;4.10;;
55292;SDS011;41157;53.560;10.098;2023-03-04T06:17:35;19.53;;;3.63;;
55292;SDS011;41157;53.560;10.098;2023-03-04T06:20:03;15.23;;;4.00;;
55292;SDS011;41157;53.560;10.098;2023-03-04T06:22:31;21.00;;;4.03;;
55292;SDS011;41157;53.560;10.098;2023-03-04T06:24:58;22.00;;;3.80;;
55292;SDS011;41157;53.560;10.098;2023-03-04T06:27:26;22.33;;;4.13;;
55292;SDS011;41157;53.560;10.098;2023-03-04T06:29:53;20.00;;;4.10;;
55292;SDS011;41157;53.560;10.098;2023-03-04T06:32:20;19.00;;;4.03;;
55292;SDS011;41157;53.560;10.098;2023-03-04T06:34:47;22.33;;;4.60;;
55292;SDS011;41157;53.560;10.098;2023-03-04T06:37:14;18.00;;;4.03;;
55292;SDS011;41157;53.560;10.098;2023-03-04T06:39:41;20.60;;;3.87;;
55292;SDS011;41157;53.560;10.098;2023-03-04T06:42:08;21.53;;;4.30;;
55292;SDS011;41157;53.560;10.098;2023-03-04T06:44:37;25.27;;;3.90;;
55292;SDS011;41157;53.560;10.098;2023-03-04T06:47:04;20.90;;;4.43;;
55292;SDS011;41157;53.560;10.098;2023-03-04T06:49:31;20.40;;;3.83;;
55292;SDS011;41157;53.560;10.098;2023-03-04T06:51:58;24.33;;;4.20;;
55292;SDS011;41157;53.560;10.098;2023-03-04T06:54:25;19.17;;;3.80;;
55292;SDS011;41157;53.560;10.098;2023-03-04T06:56:52;24.83;;;4.37;;
55292;SDS011;41157;53.560;10.098;2023-03-04T06:59:19;23.33;;;4.53;;
55292;SDS011;41157;53.560;10.098;2023-03-04T07:01:47;19.17;;;3.87;;
55292;SDS011;41157;53.560;10.098;2023-03-04T07:04:14;17.30;;;3.83;;
55292;SDS011;41157;53.560;10.098;2023-03-04T07:06:41;14.53;;;3.40;;
55292;SDS011;41157;53.560;10.098;2023-03-04T07:09:08;19.67;;;3.87;;
55292;SDS011;41157;53.560;10.098;2023-03-04T07:11:35;15.67;;;3.57;;
55292;SDS011;41157;53.560;10.098;2023-03-04T07:14:02;16.23;;;3.37;;
55292;SDS011;41157;53.560;10.098;2023-03-04T07:16:29;14.97;;;3.47;;
55292;SDS011;41157;53.560;10.098;2023-03-04T07:18:58;13.53;;;2.97;;
55292;SDS011;41157;53.560;10.098;2023-03-04T07:21:25;13.33;;;3.17;;
55292;SDS011;41157;53.560;10.098;2023-03-04T07:23:52;16.77;;;3.83;;
55292;SDS011;41157;53.560;10.098;2023-03-04T07:26:19;14.33;;;3.67;;
55292;SDS011;41157;53.560;10.098;2023-03-04T07:28:46;16.27;;;3.23;;
55292;SDS011;41157;53.560;10.098;2023-03-04T07:31:18;18.50;;;3.53;;
55292;SDS011;41157;53.560;10.098;2023-03-04T07:33:46;18.03;;;3.63;;
55292;SDS011;41157;53.560;10.098;2023-03-04T07:36:14;15.20;;;2.53;;
55292;SDS011;41157;53.560;10.098;2023-03-04T07:38:43;19.27;;;3.10;;
55292;SDS011;41157;53.560;10.098;2023-03-04T07:41:10;15.47;;;2.77;;
55292;SDS011;41157;53.560;10.098;2023-03-04T07:43:38;19.87;;;3.17;;
55292;SDS011;41157;53.560;10.098;2023-03-04T07:46:05;16.47;;;2.93;;
55292;SDS011;41157;53.560;10.098;2023-03-04T07:48:32;16.73;;;2.90;;
55292;SDS011;41157;53.560;10.098;2023-03-04T07:51:03;22.83;;;4.00;;
55292;SDS011;41157;53.560;10.098;2023-03-04T07:53:32;12.07;;;3.50;;
55292;SDS011;41157;53.560;10.098;2023-03-04T07:55:59;14.57;;;3.07;;
55292;SDS011;41157;53.560;10.098;2023-03-04T07:58:26;21.30;;;3.60;;
55292;SDS011;41157;53.560;10.098;2023-03-04T08:00:53;26.73;;;4.27;;
55292;SDS011;41157;53.560;10.098;2023-03-04T08:03:20;20.23;;;4.00;;
55292;SDS011;41157;53.560;10.098;2023-03-04T08:05:47;22.53;;;4.20;;
55292;SDS011;41157;53.560;10.098;2023-03-04T08:08:14;26.23;;;4.77;;
55292;SDS011;41157;53.560;10.098;2023-03-04T08:10:42;24.77;;;4.70;;
55292;SDS011;41157;53.560;10.098;2023-03-04T08:13:10;20.57;;;4.83;;
55292;SDS011;41157;53.560;10.098;2023-03-04T08:15:38;26.13;;;4.43;;
55292;SDS011;41157;53.560;10.098;2023-03-04T08:18:06;29.33;;;4.93;;
55292;SDS011;41157;53.560;10.098;2023-03-04T08:20:33;20.80;;;4.20;;
55292;SDS011;41157;53.560;10.098;2023-03-04T08:23:00;23.77;;;4.80;;
55292;SDS011;41157;53.560;10.098;2023-03-04T08:25:27;22.90;;;4.97;;
55292;SDS011;41157;53.560;10.098;2023-03-04T08:27:55;23.03;;;4.60;;
55292;SDS011;41157;53.560;10.098;2023-03-04T08:30:22;21.60;;;4.83;;
55292;SDS011;41157;53.560;10.098;2023-03-04T08:32:49;25.90;;;4.47;;
55292;SDS011;41157;53.560;10.098;2023-03-04T08:35:16;19.30;;;4.37;;
55292;SDS011;41157;53.560;10.098;2023-03-04T08:37:43;21.17;;;5.93;;
55292;SDS011;41157;53.560;10.098;2023-03-04T08:40:11;26.00;;;5.07;;
55292;SDS011;41157;53.560;10.098;2023-03-04T08:42:38;24.30;;;4.87;;
55292;SDS011;41157;53.560;10.098;2023-03-04T08:45:07;28.27;;;4.80;;
55292;SDS011;41157;53.560;10.098;2023-03-04T08:47:34;29.33;;;4.70;;
55292;SDS011;41157;53.560;10.098;2023-03-04T08:50:02;28.17;;;5.03;;
55292;SDS011;41157;53.560;10.098;2023-03-04T08:52:29;23.60;;;4.47;;
55292;SDS011;41157;53.560;10.098;2023-03-04T08:54:56;25.23;;;5.03;;
55292;SDS011;41157;53.560;10.098;2023-03-04T08:57:23;22.73;;;4.23;;
55292;SDS011;41157;53.560;10.098;2023-03-04T08:59:50;21.90;;;4.43;;
55292;SDS011;41157;53.560;10.098;2023-03-04T09:02:19;24.27;;;4.23;;
55292;SDS011;41157;53.560;10.098;2023-03-04T09:04:46;28.07;;;5.23;;
55292;SDS011;41157;53.560;10.098;2023-03-04T09:07:13;24.83;;;4.57;;
55292;SDS011;41157;53.560;10.098;2023-03-04T09:09:40;23.73;;;5.13;;
55292;SDS011;41157;53.560;10.098;2023-03-04T09:12:07;25.90;;;4.93;;
55292;SDS011;41157;53.560;10.098;2023-03-04T09:14:34;23.70;;;5.30;;
55292;SDS011;41157;53.560;10.098;2023-03-04T09:17:01;25.50;;;5.03;;
55292;SDS011;41157;53.560;10.098;2023-03-04T09:19:29;27.77;;;4.97;;
55292;SDS011;41157;53.560;10.098;2023-03-04T09:21:57;26.20;;;4.90;;
55292;SDS011;41157;53.560;10.098;2023-03-04T09:24:24;23.03;;;4.73;;
55292;SDS011;41157;53.560;10.098;2023-03-04T09:26:51;28.97;;;6.00;;
55292;SDS011;41157;53.560;10.098;2023-03-04T09:29:19;40.80;;;15.57;;
55292;SDS011;41157;53.560;10.098;2023-03-04T09:31:46;19.47;;;5.00;;
55292;SDS011;41157;53.560;10.098;2023-03-04T09:34:13;23.60;;;4.87;;
55292;SDS011;41157;53.560;10.098;2023-03-04T09:36:42;21.60;;;4.50;;
55292;SDS011;41157;53.560;10.098;2023-03-04T09:39:09;23.40;;;4.87;;
55292;SDS011;41157;53.560;10.098;2023-03-04T09:41:37;26.53;;;4.43;;
55292;SDS011;41157;53.560;10.098;2023-03-04T09:44:06;23.33;;;5.30;;
55292;SDS011;41157;53.560;10.098;2023-03-04T09:46:36;18.77;;;4.53;;
55292;SDS011;41157;53.560;10.098;2023-03-04T09:49:04;24.07;;;4.57;;
55292;SDS011;41157;53.560;10.098;2023-03-04T09:51:39;18.57;;;4.77;;
55292;SDS011;41157;53.560;10.098;2023-03-04T09:54:09;26.60;;;4.20;;
55292;SDS011;41157;53.560;10.098;2023-03-04T09:56:38;24.23;;;4.20;;
55292;SDS011;41157;53.560;10.098;2023-03-04T09:59:08;20.57;;;4.37;;
55292;SDS011;41157;53.560;10.098;2023-03-04T10:01:41;18.40;;;4.00;;
55292;SDS011;41157;53.560;10.098;2023-03-04T10:04:11;16.93;;;4.83;;
55292;SDS011;41157;53.560;10.098;2023-03-04T10:06:40;23.57;;;4.40;;
55292;SDS011;41157;53.560;10.098;2023-03-04T10:09:10;20.03;;;4.27;;
55292;SDS011;41157;53.560;10.098;2023-03-04T10:11:39;22.17;;;4.70;;
55292;SDS011;41157;53.560;10.098;2023-03-04T10:14:11;16.53;;;4.23;;
55292;SDS011;41157;53.560;10.098;2023-03-04T10:16:43;19.13;;;4.33;;
55292;SDS011;41157;53.560;10.098;2023-03-04T10:19:18;15.93;;;4.13;;
55292;SDS011;41157;53.560;10.098;2023-03-04T10:21:49;21.83;;;4.53;;
55292;SDS011;41157;53.560;10.098;2023-03-04T10:24:18;33.73;;;4.77;;
55292;SDS011;41157;53.560;10.098;2023-03-04T10:26:47;21.40;;;4.43;;
55292;SDS011;41157;53.560;10.098;2023-03-04T10:29:18;20.10;;;4.10;;
55292;SDS011;41157;53.560;10.098;2023-03-04T10:31:45;22.57;;;4.57;;
55292;SDS011;41157;53.560;10.098;2023-03-04T10:34:13;24.27;;;5.73;;
55292;SDS011;41157;53.560;10.098;2023-03-04T10:36:43;21.93;;;6.50;;
55292;SDS011;41157;53.560;10.098;2023-03-04T10:39:12;25.13;;;4.83;;
55292;SDS011;41157;53.560;10.098;2023-03-04T10:41:44;21.97;;;4.73;;
55292;SDS011;41157;53.560;10.098;2023-03-04T10:44:14;20.03;;;4.53;;
55292;SDS011;41157;53.560;10.098;2023-03-04T10:46:42;22.13;;;4.40;;
55292;SDS011;41157;53.560;10.098;2023-03-04T10:49:10;19.33;;;4.60;;
55292;SDS011;41157;53.560;10.098;2023-03-04T10:51:41;21.47;;;4.30;;
55292;SDS011;41157;53.560;10.098;2023-03-04T10:54:09;24.87;;;4.97;;
55292;SDS011;41157;53.560;10.098;2023-03-04T10:56:51;20.53;;;4.40;;
55292;SDS011;41157;53.560;10.098;2023-03-04T10:59:29;21.30;;;4.90;;
55292;SDS011;41157;53.560;10.098;2023-03-04T11:01:57;20.80;;;4.50;;
55292;SDS011;41157;53.560;10.098;2023-03-04T11:04:24;19.03;;;4.37;;
55292;SDS011;41157;53.560;10.098;2023-03-04T11:06:52;28.57;;;5.03;;
55292;SDS011;41157;53.560;10.098;2023-03-04T11:09:20;24.87;;;5.17;;
55292;SDS011;41157;53.560;10.098;2023-03-04T11:11:49;20.50;;;4.10;;
55292;SDS011;41157;53.560;10.098;2023-03-04T11:14:19;23.13;;;4.53;;
55292;SDS011;41157;53.560;10.098;2023-03-04T11:16:56;24.97;;;5.10;;
55292;SDS011;41157;53.560;10.098;2023-03-04T11:19:26;22.23;;;4.70;;
55292;SDS011;41157;53.560;10.098;2023-03-04T11:21:55;21.73;;;4.70;;
55292;SDS011;41157;53.560;10.098;2023-03-04T11:24:23;24.47;;;5.30;;
55292;SDS011;41157;53.560;10.098;2023-03-04T11:26:54;19.83;;;4.53;;
55292;SDS011;41157;53.560;10.098;2023-03-04T11:29:23;19.40;;;4.90;;
55292;SDS011;41157;53.560;10.098;2023-03-04T11:31:52;19.13;;;4.57;;
55292;SDS011;41157;53.560;10.098;2023-03-04T11:34:23;23.40;;;5.30;;
55292;SDS011;41157;53.560;10.098;2023-03-04T11:36:56;17.23;;;3.80;;
55292;SDS011;41157;53.560;10.098;2023-03-04T11:39:29;24.20;;;4.10;;
55292;SDS011;41157;53.560;10.098;2023-03-04T11:42:01;23.97;;;4.53;;
55292;SDS011;41157;53.560;10.098;2023-03-04T11:44:31;15.93;;;4.40;;
55292;SDS011;41157;53.560;10.098;2023-03-04T11:47:06;22.33;;;5.07;;
55292;SDS011;41157;53.560;10.098;2023-03-04T11:49:47;17.33;;;4.00;;
55292;SDS011;41157;53.560;10.098;2023-03-04T11:52:18;20.67;;;3.93;;
55292;SDS011;41157;53.560;10.098;2023-03-04T11:54:54;16.67;;;3.83;;
55292;SDS011;41157;53.560;10.098;2023-03-04T11:57:31;16.67;;;4.03;;
55292;SDS011;41157;53.560;10.098;2023-03-04T12:02:47;17.27;;;4.10;;
55292;SDS011;41157;53.560;10.098;2023-03-04T12:05:25;21.00;;;4.63;;
55292;SDS011;41157;53.560;10.098;2023-03-04T12:10:43;19.30;;;4.40;;
55292;SDS011;41157;53.560;10.098;2023-03-04T12:16:03;21.77;;;4.70;;
55292;SDS011;41157;53.560;10.098;2023-03-04T12:18:36;17.80;;;3.50;;
55292;SDS011;41157;53.560;10.098;2023-03-04T12:21:18;21.07;;;4.13;;
55292;SDS011;41157;53.560;10.098;2023-03-04T12:24:00;19.17;;;4.13;;
55292;SDS011;41157;53.560;10.098;2023-03-04T12:26:32;14.77;;;4.07;;
55292;SDS011;41157;53.560;10.098;2023-03-04T12:29:03;18.77;;;3.90;;
55292;SDS011;41157;53.560;10.098;2023-03-04T12:31:36;20.67;;;3.83;;
55292;SDS011;41157;53.560;10.098;2023-03-04T12:34:08;21.00;;;4.83;;
55292;SDS011;41157;53.560;10.098;2023-03-04T12:36:41;23.87;;;4.33;;
55292;SDS011;41157;53.560;10.098;2023-03-04T12:39:17;15.57;;;3.80;;
55292;SDS011;41157;53.560;10.098;2023-03-04T12:41:47;17.47;;;3.87;;
55292;SDS011;41157;53.560;10.098;2023-03-04T12:44:16;17.10;;;4.23;;
55292;SDS011;41157;53.560;10.098;2023-03-04T12:46:49;22.93;;;4.30;;
55292;SDS011;41157;53.560;10.098;2023-03-04T12:49:31;17.47;;;4.03;;
55292;SDS011;41157;53.560;10.098;2023-03-04T12:52:02;21.30;;;4.53;;
55292;SDS011;41157;53.560;10.098;2023-03-04T12:54:34;22.23;;;4.07;;
55292;SDS011;41157;53.560;10.098;2023-03-04T12:57:03;24.77;;;4.37;;
55292;SDS011;41157;53.560;10.098;2023-03-04T12:59:33;21.73;;;4.17;;
55292;SDS011;41157;53.560;10.098;2023-03-04T13:02:08;21.80;;;4.57;;
55292;SDS011;41157;53.560;10.098;2023-03-04T13:04:38;18.97;;;4.33;;
55292;SDS011;41157;53.560;10.098;2023-03-04T13:07:10;13.10;;;3.50;;
55292;SDS011;41157;53.560;10.098;2023-03-04T13:09:42;11.97;;;3.57;;
55292;SDS011;41157;53.560;10.098;2023-03-04T13:12:13;14.07;;;3.77;;
55292;SDS011;41157;53.560;10.098;2023-03-04T13:14:45;16.83;;;3.90;;
55292;SDS011;41157;53.560;10.098;2023-03-04T13:17:40;17.73;;;3.97;;
55292;SDS011;41157;53.560;10.098;2023-03-04T13:20:16;14.53;;;4.30;;
55292;SDS011;41157;53.560;10.098;2023-03-04T13:22:45;16.67;;;3.80;;
55292;SDS011;41157;53.560;10.098;2023-03-04T13:25:29;15.97;;;4.07;;
55292;SDS011;41157;53.560;10.098;2023-03-04T13:28:15;15.57;;;4.70;;
55292;SDS011;41157;53.560;10.098;2023-03-04T13:31:06;15.80;;;4.33;;
55292;SDS011;41157;53.560;10.098;2023-03-04T13:33:45;13.97;;;3.57;;
55292;SDS011;41157;53.560;10.098;2023-03-04T13:36:30;18.87;;;4.43;;
55292;SDS011;41157;53.560;10.098;2023-03-04T13:38:58;14.70;;;3.63;;
55292;SDS011;41157;53.560;10.098;2023-03-04T13:41:28;18.03;;;4.77;;
55292;SDS011;41157;53.560;10.098;2023-03-04T13:43:56;16.67;;;3.80;;
55292;SDS011;41157;53.560;10.098;2023-03-04T13:46:37;17.77;;;3.93;;
55292;SDS011;41157;53.560;10.098;2023-03-04T13:49:14;18.63;;;3.90;;
55292;SDS011;41157;53.560;10.098;2023-03-04T13:51:43;17.70;;;4.00;;
55292;SDS011;41157;53.560;10.098;2023-03-04T13:54:13;13.73;;;3.90;;
55292;SDS011;41157;53.560;10.098;2023-03-04T13:56:42;15.60;;;3.77;;
55292;SDS011;41157;53.560;10.098;2023-03-04T13:59:17;19.13;;;4.13;;
55292;SDS011;41157;53.560;10.098;2023-03-04T14:02:00;15.50;;;3.93;;
55292;SDS011;41157;53.560;10.098;2023-03-04T14:04:30;15.87;;;3.80;;
55292;SDS011;41157;53.560;10.098;2023-03-04T14:06:58;13.70;;;3.53;;
55292;SDS011;41157;53.560;10.098;2023-03-04T14:09:26;13.93;;;3.70;;
55292;SDS011;41157;53.560;10.098;2023-03-04T14:11:55;20.83;;;4.07;;
55292;SDS011;41157;53.560;10.098;2023-03-04T14:14:23;21.90;;;4.13;;
55292;SDS011;41157;53.560;10.098;2023-03-04T14:16:52;20.17;;;5.03;;
55292;SDS011;41157;53.560;10.098;2023-03-04T14:19:22;15.30;;;3.50;;
55292;SDS011;41157;53.560;10.098;2023-03-04T14:21:51;14.50;;;3.47;;
55292;SDS011;41157;53.560;10.098;2023-03-04T14:24:19;14.40;;;3.33;;
55292;SDS011;41157;53.560;10.098;2023-03-04T14:26:46;17.53;;;4.03;;
55292;SDS011;41157;53.560;10.098;2023-03-04T14:29:20;19.70;;;4.23;;
55292;SDS011;41157;53.560;10.098;2023-03-04T14:31:47;12.97;;;3.13;;
55292;SDS011;41157;53.560;10.098;2023-03-04T14:34:16;15.87;;;3.50;;
55292;SDS011;41157;53.560;10.098;2023-03-04T14:36:45;17.60;;;3.67;;
55292;SDS011;41157;53.560;10.098;2023-03-04T14:39:14;19.37;;;3.90;;
55292;SDS011;41157;53.560;10.098;2023-03-04T14:41:41;18.90;;;3.67;;
55292;SDS011;41157;53.560;10.098;2023-03-04T14:44:11;11.07;;;3.03;;